首页
METAR-TAF:

METAR-TAF

机场 :

卡馬圭, 古巴

纬度: 21-25N, 经度: 077-51W, 海拔: 122米

当前天气观测

该预报发布于53分钟前的07:50 UTC
风速8节,风向东北
温度 23°C
湿度 89%
气压 1015 hPa
能見度: 9000

METAR: MUCM 170750Z 04008KT 9000 NSC 23/21 Q1015

时间: 04:43 (08:43 UTC)

预报

该预报发布于3小时和43分钟前的05:00 UTC
预报有效从17日的 06点(UTC)到 18日的 06点(UTC)
风速8节,风向东转东北
能見度: 9000
散云层高于2000英尺
成为
从 17日的 13点(UTC)到 17日的 15点(UTC)
风速13节,风向东转东北

TAF: MUCM 170500Z 1706/1806 06008KT 9000 SCT020 BECMG 1713/1715 07013KT

超过4000个机场的气象观测和天气预报(METAR&TAF报告)。

可查询的气象台以黄色和红色小点在地图上表示。

将鼠标移到小点上方,可查看气象台名称。

然后点击查看天气观测和预报。

如需切换地图:点击带黑十字的绿色按钮放大地图;点击带横线的绿色按钮缩小地图;或者点击绿色箭头查看邻近地区的地图。


METAR-TAF: